createdAt,value
2023-05-09T00:02:58.067Z,4.18
2023-05-09T00:06:01.235Z,4.60
2023-05-09T00:09:03.447Z,4.05
2023-05-09T00:12:05.837Z,4.35
2023-05-09T00:15:08.456Z,4.32
2023-05-09T00:18:10.563Z,4.45
2023-05-09T00:21:13.737Z,4.32
2023-05-09T00:24:15.923Z,4.55
2023-05-09T00:27:18.064Z,4.75
2023-05-09T00:30:20.118Z,4.68
2023-05-09T00:33:22.105Z,4.18
2023-05-09T00:36:25.318Z,4.63
2023-05-09T00:39:27.302Z,4.88
2023-05-09T00:42:29.102Z,4.32
2023-05-09T00:45:31.359Z,4.55
2023-05-09T00:48:33.113Z,5.03
2023-05-09T00:51:36.966Z,4.70
2023-05-09T00:54:38.860Z,4.82
2023-05-09T00:57:40.672Z,4.78
2023-05-09T01:00:43.240Z,4.60
2023-05-09T01:03:45.535Z,5.10
2023-05-09T01:06:58.373Z,4.60
2023-05-09T01:10:05.472Z,5.20
2023-05-09T01:13:22.231Z,5.28
2023-05-09T01:16:31.112Z,5.30
2023-05-09T03:17:02.301Z,6.22
2023-05-09T03:20:06.571Z,6.20
2023-05-09T03:23:08.403Z,5.50
2023-05-09T03:26:10.267Z,5.97
2023-05-09T03:29:12.524Z,6.95
2023-05-09T03:32:15.766Z,6.68
2023-05-09T03:35:17.601Z,5.95
2023-05-09T03:38:19.349Z,6.07
2023-05-09T03:41:21.178Z,5.97
2023-05-09T03:44:23.031Z,6.03
2023-05-09T03:47:26.564Z,6.50
2023-05-09T03:50:29.196Z,6.22
2023-05-09T03:53:30.993Z,6.45
2023-05-09T03:56:32.804Z,6.30
2023-05-09T03:59:34.812Z,6.38
2023-05-09T04:02:38.037Z,6.03
2023-05-09T04:05:40.202Z,6.22
2023-05-09T04:08:42.310Z,6.20
2023-05-09T04:11:44.145Z,6.43
2023-05-09T04:14:48.182Z,6.47
2023-05-09T04:17:52.712Z,6.40
2023-05-09T04:20:54.570Z,6.32
2023-05-09T04:23:56.348Z,6.03
2023-05-09T04:26:58.468Z,6.38
2023-05-09T04:30:00.399Z,6.35
2023-05-09T04:33:03.575Z,6.32
2023-05-09T04:36:06.493Z,6.95
2023-05-09T04:39:08.406Z,6.40
2023-05-09T04:42:10.517Z,6.07
2023-05-09T04:45:12.450Z,6.45
2023-05-09T04:48:15.834Z,6.32
2023-05-09T04:51:17.738Z,6.32
2023-05-09T04:54:19.880Z,6.45
2023-05-09T04:57:21.705Z,6.13
2023-05-09T05:00:23.672Z,5.95
2023-05-09T05:03:27.520Z,6.80
2023-05-09T05:06:29.266Z,6.78
2023-05-09T05:09:31.278Z,6.15
2023-05-09T05:12:33.480Z,6.28
2023-05-09T05:15:36.538Z,6.38
2023-05-09T05:18:40.161Z,6.80
2023-05-09T05:21:43.007Z,6.22
2023-05-09T05:24:44.722Z,6.00
2023-05-09T05:27:46.873Z,6.38
2023-05-09T05:30:49.095Z,6.35
2023-05-09T05:33:52.412Z,6.10
2023-05-09T05:36:54.214Z,6.32
2023-05-09T05:39:56.046Z,6.53
2023-05-09T05:42:57.768Z,7.40
2023-05-09T05:45:59.595Z,6.25
2023-05-09T05:49:03.083Z,5.95
2023-05-09T05:52:05.036Z,6.55
2023-05-09T05:55:08.198Z,6.10
2023-05-09T05:58:12.097Z,6.70
2023-05-09T06:01:14.384Z,7.18
2023-05-09T06:04:18.026Z,6.53
2023-05-09T06:07:20.292Z,6.45
2023-05-09T06:10:23.108Z,6.85
2023-05-09T06:13:24.960Z,6.25
2023-05-09T06:16:27.083Z,6.40
2023-05-09T06:19:30.829Z,7.00
2023-05-09T06:22:34.380Z,6.63
2023-05-09T06:25:36.342Z,6.85
2023-05-09T06:28:41.446Z,26.13
2023-05-09T06:31:43.580Z,8.05
2023-05-09T06:34:46.777Z,6.80
2023-05-09T06:37:49.028Z,6.38
2023-05-09T06:40:51.296Z,6.65
2023-05-09T06:43:53.197Z,6.85
2023-05-09T06:46:56.148Z,7.10
2023-05-09T06:49:59.655Z,6.38
2023-05-09T06:53:01.402Z,7.32
2023-05-09T06:56:03.440Z,6.53
2023-05-09T06:59:05.286Z,7.03
2023-05-09T07:02:08.860Z,7.25
2023-05-09T07:05:12.106Z,6.85
2023-05-09T07:08:14.039Z,6.63
2023-05-09T07:11:15.802Z,7.30
2023-05-09T07:14:17.582Z,6.85
2023-05-09T07:17:23.523Z,7.38
2023-05-09T07:20:27.344Z,6.78
2023-05-09T07:23:29.072Z,7.28
2023-05-09T07:26:30.851Z,7.20
2023-05-09T07:29:32.688Z,7.80
2023-05-09T07:32:34.754Z,7.40
2023-05-09T07:35:37.988Z,7.60
2023-05-09T07:38:44.525Z,13.13
2023-05-09T07:41:48.672Z,7.50
2023-05-09T07:44:50.764Z,7.32
2023-05-09T07:47:55.010Z,7.80
2023-05-09T07:50:58.175Z,6.95
2023-05-09T07:53:59.982Z,7.50
2023-05-09T07:57:01.900Z,7.20
2023-05-09T08:00:04.764Z,8.88
2023-05-09T08:03:06.735Z,7.90
2023-05-09T08:06:12.521Z,7.88
2023-05-09T08:09:14.708Z,8.02
2023-05-09T08:12:16.895Z,7.95
2023-05-09T08:15:18.783Z,8.50
2023-05-09T08:18:20.616Z,9.32
2023-05-09T08:21:23.869Z,8.98
2023-05-09T08:24:25.616Z,8.50
2023-05-09T08:27:27.456Z,8.80
2023-05-09T08:30:29.257Z,8.80
2023-05-09T08:33:31.078Z,9.23
2023-05-09T08:36:34.230Z,8.80
2023-05-09T08:39:36.462Z,8.77
2023-05-09T08:42:38.358Z,9.35
2023-05-09T08:45:46.669Z,9.10
2023-05-09T08:48:48.696Z,10.80
2023-05-09T08:51:52.286Z,10.43
2023-05-09T08:54:54.584Z,10.35
2023-05-09T08:57:57.773Z,9.30
2023-05-09T09:01:00.221Z,10.90
2023-05-09T09:04:05.390Z,10.25
2023-05-09T09:07:09.970Z,10.65
2023-05-09T09:10:13.600Z,10.73
2023-05-09T09:13:17.711Z,10.32
2023-05-09T09:16:22.915Z,10.27
2023-05-09T09:19:30.804Z,9.85
2023-05-09T09:22:34.814Z,10.40
2023-05-09T09:25:36.754Z,10.70
2023-05-09T09:28:38.862Z,10.15
2023-05-09T09:31:44.560Z,10.48
2023-05-09T09:34:49.804Z,10.43
2023-05-09T09:37:59.854Z,10.57
2023-05-09T09:41:01.987Z,10.18
2023-05-09T09:44:07.981Z,11.77
2023-05-09T09:47:10.389Z,10.35
2023-05-09T09:50:13.919Z,10.50
2023-05-09T09:53:20.400Z,11.10
2023-05-09T09:56:22.367Z,9.73
2023-05-09T09:59:25.316Z,10.55
2023-05-09T10:02:27.084Z,11.00
2023-05-09T10:05:30.202Z,9.70
2023-05-09T10:08:33.381Z,10.27
2023-05-09T10:11:35.103Z,9.73
2023-05-09T10:14:41.219Z,9.98
2023-05-09T10:17:43.320Z,10.63
2023-05-09T10:20:46.174Z,9.98
2023-05-09T10:23:52.303Z,10.23
2023-05-09T10:27:00.343Z,11.00
2023-05-09T10:30:05.021Z,10.77
2023-05-09T10:33:10.058Z,11.10
2023-05-09T10:36:13.098Z,11.27
2023-05-09T10:39:17.448Z,10.80
2023-05-09T10:42:20.028Z,11.00
2023-05-09T10:45:22.812Z,10.43
2023-05-09T10:48:25.660Z,11.38
2023-05-09T10:51:27.981Z,11.07
2023-05-09T10:54:31.675Z,10.75
2023-05-09T10:57:38.937Z,11.00
2023-05-09T11:00:43.247Z,10.95
2023-05-09T11:03:55.604Z,11.05
2023-05-09T11:06:57.846Z,12.07
2023-05-09T11:10:09.773Z,11.50
2023-05-09T11:13:11.616Z,11.32
2023-05-09T11:16:13.482Z,12.13
2023-05-09T11:19:33.779Z,12.00
2023-05-09T11:22:41.059Z,11.65
2023-05-09T11:25:47.215Z,11.32
2023-05-09T11:28:53.809Z,11.88
2023-05-09T11:32:07.862Z,11.13
2023-05-09T11:35:12.098Z,13.23
2023-05-09T11:38:21.189Z,10.93
2023-05-09T11:41:24.691Z,11.82
2023-05-09T11:44:28.416Z,11.48
2023-05-09T11:47:30.543Z,16.20
2023-05-09T11:50:32.415Z,14.32
2023-05-09T11:53:34.209Z,11.68
2023-05-09T11:56:39.794Z,10.65
2023-05-09T11:59:41.903Z,11.13
2023-05-09T12:02:45.274Z,10.20
2023-05-09T12:05:48.238Z,10.43
2023-05-09T12:08:50.056Z,10.60
2023-05-09T12:11:53.443Z,10.30
2023-05-09T12:14:55.178Z,10.63
2023-05-09T12:18:05.258Z,10.60
2023-05-09T12:21:07.755Z,10.90
2023-05-09T12:24:10.549Z,10.73
2023-05-09T12:27:13.860Z,10.25
2023-05-09T12:30:16.352Z,10.60
2023-05-09T12:33:18.642Z,10.93
2023-05-09T12:36:21.064Z,10.85
2023-05-09T12:39:22.816Z,10.98
2023-05-09T12:42:27.352Z,10.40
2023-05-09T12:45:32.040Z,10.68
2023-05-09T12:48:37.184Z,10.45
2023-05-09T12:51:48.402Z,10.70
2023-05-09T12:54:52.517Z,11.90
2023-05-09T12:58:01.259Z,11.27
2023-05-09T13:01:04.833Z,8.35
2023-05-09T13:04:07.651Z,10.43
2023-05-09T13:07:10.121Z,9.88
2023-05-09T13:10:13.026Z,9.48
2023-05-09T13:13:17.286Z,10.00
2023-05-09T13:16:19.198Z,9.15
2023-05-09T13:19:20.948Z,9.88
2023-05-09T13:22:22.793Z,9.57
2023-05-09T13:25:24.573Z,9.07
2023-05-09T13:28:27.752Z,9.60
2023-05-09T13:31:30.439Z,9.95
2023-05-09T13:34:32.224Z,9.73
2023-05-09T13:37:34.116Z,9.35
2023-05-09T13:40:36.161Z,9.77
2023-05-09T13:43:40.048Z,9.00
2023-05-09T13:46:42.270Z,8.75
2023-05-09T13:49:44.257Z,8.60
2023-05-09T13:52:46.305Z,11.10
2023-05-09T13:55:48.213Z,8.70
2023-05-09T13:58:51.350Z,8.48
2023-05-09T14:01:53.218Z,8.18
2023-05-09T14:04:55.037Z,8.50
2023-05-09T14:07:56.983Z,8.30
2023-05-09T14:10:58.730Z,7.53
2023-05-09T14:14:01.989Z,8.35
2023-05-09T14:17:03.816Z,8.25
2023-05-09T14:20:07.795Z,8.68
2023-05-09T14:23:09.583Z,7.80
2023-05-09T14:26:11.650Z,7.60
2023-05-09T14:29:14.840Z,8.32
2023-05-09T14:32:16.612Z,7.53
2023-05-09T14:35:18.709Z,6.80
2023-05-09T14:38:20.857Z,7.13
2023-05-09T14:41:22.704Z,6.43
2023-05-09T14:44:27.477Z,6.00
2023-05-09T14:47:29.680Z,6.22
2023-05-09T14:50:31.601Z,6.68
2023-05-09T14:53:33.500Z,6.78
2023-05-09T14:56:35.821Z,6.80
2023-05-09T14:59:39.009Z,5.82
2023-05-09T15:02:41.000Z,5.50
2023-05-09T15:05:43.215Z,6.00
2023-05-09T15:08:44.952Z,6.25
2023-05-09T15:11:48.746Z,6.68
2023-05-09T15:14:53.257Z,5.55
2023-05-09T15:17:55.325Z,5.60
2023-05-09T15:20:58.419Z,5.75
2023-05-09T15:24:00.262Z,6.03
2023-05-09T15:27:02.134Z,6.07
2023-05-09T15:30:08.805Z,5.68
2023-05-09T15:33:11.851Z,5.80
2023-05-09T15:36:13.858Z,5.20
2023-05-09T15:39:16.510Z,5.43
2023-05-09T15:42:18.581Z,4.57
2023-05-09T15:45:21.752Z,5.40
2023-05-09T15:48:24.861Z,5.00
2023-05-09T15:51:26.741Z,5.28
2023-05-09T15:54:28.475Z,4.78
2023-05-09T15:57:30.318Z,4.60
2023-05-09T16:00:34.000Z,4.72
2023-05-09T16:03:35.916Z,5.25
2023-05-09T16:06:37.822Z,5.20
2023-05-09T16:09:39.619Z,4.60
2023-05-09T16:12:46.328Z,4.80
2023-05-09T16:15:49.643Z,4.60
2023-05-09T16:18:51.625Z,4.65
2023-05-09T16:21:53.590Z,3.95
2023-05-09T16:24:56.693Z,3.97
2023-05-09T16:27:58.610Z,4.22
2023-05-09T16:31:01.734Z,4.43
2023-05-09T16:34:03.598Z,4.65
2023-05-09T16:37:05.471Z,4.40
2023-05-09T16:40:08.380Z,4.20
2023-05-09T16:43:10.526Z,3.83
2023-05-09T16:46:13.703Z,4.63
2023-05-09T16:49:15.594Z,4.00
2023-05-09T16:52:17.499Z,4.20
2023-05-09T16:55:19.622Z,3.85
2023-05-09T16:58:22.000Z,4.15
2023-05-09T17:01:25.444Z,4.07
2023-05-09T17:04:27.521Z,4.22
2023-05-09T17:07:29.528Z,3.70
2023-05-09T17:10:32.006Z,3.83
2023-05-09T17:13:33.866Z,3.75
2023-05-09T17:16:38.291Z,3.72
2023-05-09T17:19:41.261Z,4.00
2023-05-09T17:22:43.442Z,3.33
2023-05-09T17:25:46.304Z,3.28
2023-05-09T17:28:50.163Z,4.00
2023-05-09T17:31:54.174Z,3.75
2023-05-09T17:34:56.797Z,3.85
2023-05-09T17:37:59.555Z,3.88
2023-05-09T17:41:03.360Z,3.78
2023-05-09T17:44:09.847Z,4.00
2023-05-09T17:47:13.704Z,3.75
2023-05-09T17:50:16.698Z,3.67
2023-05-09T17:53:19.454Z,3.95
2023-05-09T17:56:21.917Z,3.80
2023-05-09T17:59:24.679Z,3.50
2023-05-09T18:02:31.678Z,3.47
2023-05-09T18:05:34.634Z,4.03
2023-05-09T18:08:38.418Z,3.60
2023-05-09T18:11:41.004Z,3.85
2023-05-09T18:14:43.577Z,3.85
2023-05-09T18:17:48.167Z,3.60
2023-05-09T18:20:51.069Z,3.75
2023-05-09T18:23:54.182Z,3.63
2023-05-09T18:26:57.304Z,3.28
2023-05-09T18:30:01.391Z,4.03
2023-05-09T18:33:05.676Z,3.88
2023-05-09T18:36:09.131Z,3.83
2023-05-09T18:39:11.867Z,3.40
2023-05-09T18:42:16.290Z,3.90
2023-05-09T18:45:19.931Z,4.03
2023-05-09T18:48:24.086Z,3.63
2023-05-09T18:51:26.722Z,3.58
2023-05-09T18:54:29.372Z,3.60
2023-05-09T18:57:32.933Z,3.85
2023-05-09T19:00:35.950Z,3.72
2023-05-09T19:03:41.110Z,3.90
2023-05-09T19:06:43.797Z,3.90
2023-05-09T19:09:47.372Z,3.70
2023-05-09T19:12:50.401Z,4.10
2023-05-09T19:15:53.707Z,4.22
2023-05-09T19:19:00.135Z,3.83
2023-05-09T19:22:02.785Z,3.58
2023-05-09T19:25:06.226Z,3.85
2023-05-09T19:28:08.805Z,3.60
2023-05-09T19:31:12.093Z,3.90
2023-05-09T19:34:16.140Z,3.90
2023-05-09T19:37:18.732Z,3.80
2023-05-09T19:40:21.805Z,3.70
2023-05-09T19:43:25.931Z,4.05
2023-05-09T19:46:28.468Z,3.95
2023-05-09T19:49:32.499Z,4.10
2023-05-09T19:52:36.760Z,3.97
2023-05-09T19:55:39.560Z,4.15
2023-05-09T19:58:43.213Z,4.35
2023-05-09T20:01:47.122Z,4.10
2023-05-09T20:04:51.084Z,3.90
2023-05-09T20:07:53.982Z,4.25
2023-05-09T20:10:57.841Z,3.58
2023-05-09T20:14:00.851Z,4.07
2023-05-09T20:17:03.613Z,4.15
2023-05-09T20:20:11.807Z,4.07
2023-05-09T20:23:14.350Z,3.88
2023-05-09T20:26:17.273Z,3.60
2023-05-09T20:29:19.740Z,4.00
2023-05-09T20:32:22.472Z,4.50
2023-05-09T20:35:26.437Z,4.38
2023-05-09T20:38:29.449Z,3.97
2023-05-09T20:41:32.075Z,4.05
2023-05-09T20:44:34.572Z,4.47
2023-05-09T20:47:40.077Z,4.32
2023-05-09T20:50:43.910Z,4.35
2023-05-09T20:53:46.088Z,3.85
2023-05-09T20:56:47.882Z,4.35
2023-05-09T20:59:49.947Z,4.63
2023-05-09T21:02:51.785Z,4.28
2023-05-09T21:05:55.100Z,4.25
2023-05-09T21:08:57.150Z,4.68
2023-05-09T21:11:58.991Z,4.43
2023-05-09T21:15:00.815Z,4.38
2023-05-09T21:18:02.725Z,4.10
2023-05-09T21:21:07.553Z,4.35
2023-05-09T21:24:09.771Z,4.40
2023-05-09T21:27:11.638Z,4.78
2023-05-09T21:30:14.017Z,4.78
2023-05-09T21:33:16.223Z,5.18
2023-05-09T21:36:19.496Z,4.47
2023-05-09T21:39:21.244Z,4.65
2023-05-09T21:42:23.039Z,5.03
2023-05-09T21:45:24.903Z,4.10
2023-05-09T21:48:26.880Z,4.75
2023-05-09T21:51:30.087Z,4.75
2023-05-09T21:54:31.939Z,4.63
2023-05-09T21:57:33.751Z,4.30
2023-05-09T22:00:35.533Z,4.22
2023-05-09T22:03:37.494Z,4.50
2023-05-09T22:06:40.911Z,4.95
2023-05-09T22:09:43.021Z,5.15
2023-05-09T22:12:45.230Z,4.30
2023-05-09T22:15:47.253Z,5.13
2023-05-09T22:18:49.086Z,4.32
2023-05-09T22:21:52.334Z,4.65
2023-05-09T22:24:54.291Z,4.60
2023-05-09T22:27:56.805Z,5.13
2023-05-09T22:30:58.637Z,5.38
2023-05-09T22:34:00.550Z,4.55
2023-05-09T22:37:03.958Z,4.78
2023-05-09T22:40:07.298Z,5.22
2023-05-09T22:43:09.247Z,4.88
2023-05-09T22:46:11.531Z,4.93
2023-05-09T22:49:13.457Z,4.50
2023-05-09T22:52:16.968Z,4.70
2023-05-09T22:55:18.909Z,4.65
2023-05-09T22:58:20.795Z,4.82
2023-05-09T23:01:22.631Z,4.75
2023-05-09T23:04:24.591Z,5.00
2023-05-09T23:07:27.762Z,4.70
2023-05-09T23:10:29.607Z,5.55
2023-05-09T23:13:31.497Z,4.82
2023-05-09T23:16:33.303Z,4.63
2023-05-09T23:19:35.595Z,4.90
2023-05-09T23:22:39.662Z,5.22
2023-05-09T23:25:41.441Z,4.68
2023-05-09T23:28:43.335Z,5.10
2023-05-09T23:31:45.309Z,5.28
2023-05-09T23:34:47.192Z,4.95
2023-05-09T23:37:50.458Z,4.47
2023-05-09T23:40:54.287Z,5.22
2023-05-09T23:43:56.252Z,4.82
2023-05-09T23:46:58.159Z,4.88
2023-05-09T23:50:00.135Z,4.90
2023-05-09T23:53:03.224Z,4.80
2023-05-09T23:56:06.019Z,4.72
2023-05-09T23:59:08.179Z,5.25
